sensor_id;sensor_type;location;lat;lon;timestamp;pressure;altitude;pressure_sealevel;temperature;humidity
9746;BME280;4912;50.836;12.958;2023-02-03T00:01:43;98464.97;;;3.40;100.00
9746;BME280;4912;50.836;12.958;2023-02-03T00:04:13;98453.97;;;3.44;100.00
9746;BME280;4912;50.836;12.958;2023-02-03T00:06:44;98451.56;;;3.53;100.00
9746;BME280;4912;50.836;12.958;2023-02-03T00:09:17;98448.38;;;3.58;100.00
9746;BME280;4912;50.836;12.958;2023-02-03T00:11:48;98448.38;;;3.58;100.00
9746;BME280;4912;50.836;12.958;2023-02-03T00:14:18;98443.03;;;3.47;100.00
9746;BME280;4912;50.836;12.958;2023-02-03T00:16:48;98438.66;;;3.53;100.00
9746;BME280;4912;50.836;12.958;2023-02-03T00:19:19;98446.06;;;3.56;100.00
9746;BME280;4912;50.836;12.958;2023-02-03T00:21:49;98437.44;;;3.58;100.00
9746;BME280;4912;50.836;12.958;2023-02-03T00:24:22;98441.13;;;3.37;100.00
9746;BME280;4912;50.836;12.958;2023-02-03T00:26:53;98429.50;;;3.29;100.00
9746;BME280;4912;50.836;12.958;2023-02-03T00:29:23;98427.19;;;3.24;100.00
9746;BME280;4912;50.836;12.958;2023-02-03T00:31:54;98408.69;;;3.39;100.00
9746;BME280;4912;50.836;12.958;2023-02-03T00:34:27;98412.56;;;3.42;100.00
9746;BME280;4912;50.836;12.958;2023-02-03T00:36:59;98410.66;;;3.39;100.00
9746;BME280;4912;50.836;12.958;2023-02-03T00:39:35;98399.16;;;3.58;100.00
9746;BME280;4912;50.836;12.958;2023-02-03T00:42:05;98396.34;;;3.61;100.00
9746;BME280;4912;50.836;12.958;2023-02-03T00:44:38;98390.44;;;3.66;100.00
9746;BME280;4912;50.836;12.958;2023-02-03T00:47:08;98392.66;;;3.79;100.00
9746;BME280;4912;50.836;12.958;2023-02-03T00:49:39;98391.94;;;3.75;100.00
9746;BME280;4912;50.836;12.958;2023-02-03T00:52:09;98393.66;;;3.58;100.00
9746;BME280;4912;50.836;12.958;2023-02-03T00:54:42;98394.44;;;3.58;100.00
9746;BME280;4912;50.836;12.958;2023-02-03T00:57:12;98383.41;;;3.65;100.00
9746;BME280;4912;50.836;12.958;2023-02-03T00:59:43;98380.44;;;3.53;100.00
9746;BME280;4912;50.836;12.958;2023-02-03T01:02:14;98375.25;;;3.62;100.00
9746;BME280;4912;50.836;12.958;2023-02-03T01:04:44;98372.91;;;3.60;100.00
9746;BME280;4912;50.836;12.958;2023-02-03T01:07:15;98376.81;;;3.59;100.00
9746;BME280;4912;50.836;12.958;2023-02-03T01:09:48;98370.94;;;3.64;100.00
9746;BME280;4912;50.836;12.958;2023-02-03T01:12:18;98355.03;;;3.52;100.00
9746;BME280;4912;50.836;12.958;2023-02-03T01:14:49;98349.81;;;3.65;100.00
9746;BME280;4912;50.836;12.958;2023-02-03T01:17:19;98332.63;;;3.64;100.00
9746;BME280;4912;50.836;12.958;2023-02-03T01:19:50;98318.63;;;3.59;100.00
9746;BME280;4912;50.836;12.958;2023-02-03T01:22:21;98311.50;;;3.65;100.00
9746;BME280;4912;50.836;12.958;2023-02-03T01:24:54;98303.31;;;3.65;100.00
9746;BME280;4912;50.836;12.958;2023-02-03T01:27:24;98290.84;;;3.60;100.00
9746;BME280;4912;50.836;12.958;2023-02-03T01:29:55;98290.50;;;3.58;100.00
9746;BME280;4912;50.836;12.958;2023-02-03T01:32:25;98292.84;;;3.56;100.00
9746;BME280;4912;50.836;12.958;2023-02-03T01:34:56;98279.88;;;3.64;100.00
9746;BME280;4912;50.836;12.958;2023-02-03T01:37:26;98287.22;;;3.70;100.00
9746;BME280;4912;50.836;12.958;2023-02-03T01:39:59;98287.84;;;3.82;100.00
9746;BME280;4912;50.836;12.958;2023-02-03T01:42:31;98279.63;;;3.82;100.00
9746;BME280;4912;50.836;12.958;2023-02-03T01:45:02;98275.66;;;3.86;100.00
9746;BME280;4912;50.836;12.958;2023-02-03T01:47:36;98272.06;;;3.93;100.00
9746;BME280;4912;50.836;12.958;2023-02-03T01:50:13;98268.44;;;3.99;100.00
9746;BME280;4912;50.836;12.958;2023-02-03T01:52:49;98256.25;;;4.04;100.00
9746;BME280;4912;50.836;12.958;2023-02-03T01:55:27;98274.84;;;4.16;100.00
9746;BME280;4912;50.836;12.958;2023-02-03T01:58:03;98269.75;;;4.18;100.00
9746;BME280;4912;50.836;12.958;2023-02-03T02:00:36;98252.84;;;4.23;100.00
9746;BME280;4912;50.836;12.958;2023-02-03T02:03:08;98246.63;;;4.19;100.00
9746;BME280;4912;50.836;12.958;2023-02-03T02:05:44;98246.63;;;4.19;100.00
9746;BME280;4912;50.836;12.958;2023-02-03T02:08:17;98238.59;;;4.32;100.00
9746;BME280;4912;50.836;12.958;2023-02-03T02:10:52;98226.84;;;4.35;100.00
9746;BME280;4912;50.836;12.958;2023-02-03T02:13:23;98242.13;;;4.32;100.00
9746;BME280;4912;50.836;12.958;2023-02-03T02:15:59;98245.53;;;4.40;100.00
9746;BME280;4912;50.836;12.958;2023-02-03T02:18:46;98242.69;;;4.47;100.00
9746;BME280;4912;50.836;12.958;2023-02-03T02:21:43;98241.53;;;4.44;100.00
9746;BME280;4912;50.836;12.958;2023-02-03T02:24:41;98241.47;;;4.48;100.00
9746;BME280;4912;50.836;12.958;2023-02-03T02:31:01;98232.34;;;4.54;100.00
9746;BME280;4912;50.836;12.958;2023-02-03T02:33:55;98244.16;;;4.51;100.00
9746;BME280;4912;50.836;12.958;2023-02-03T02:36:37;98222.63;;;4.53;100.00
9746;BME280;4912;50.836;12.958;2023-02-03T02:39:15;98224.13;;;4.54;100.00
9746;BME280;4912;50.836;12.958;2023-02-03T02:41:54;98226.06;;;4.58;100.00
9746;BME280;4912;50.836;12.958;2023-02-03T02:44:31;98228.19;;;4.70;100.00
9746;BME280;4912;50.836;12.958;2023-02-03T02:47:09;98220.78;;;4.67;100.00
9746;BME280;4912;50.836;12.958;2023-02-03T02:49:53;98219.13;;;4.73;100.00
9746;BME280;4912;50.836;12.958;2023-02-03T02:52:30;98213.72;;;4.69;100.00
9746;BME280;4912;50.836;12.958;2023-02-03T02:55:06;98205.78;;;4.75;100.00
9746;BME280;4912;50.836;12.958;2023-02-03T02:57:41;98204.53;;;4.79;100.00
9746;BME280;4912;50.836;12.958;2023-02-03T03:00:13;98189.56;;;4.84;100.00
9746;BME280;4912;50.836;12.958;2023-02-03T03:02:44;98194.63;;;4.85;100.00
9746;BME280;4912;50.836;12.958;2023-02-03T03:05:20;98199.19;;;4.92;100.00
9746;BME280;4912;50.836;12.958;2023-02-03T03:07:55;98182.63;;;4.99;100.00
9746;BME280;4912;50.836;12.958;2023-02-03T03:10:30;98188.09;;;4.99;100.00
9746;BME280;4912;50.836;12.958;2023-02-03T03:13:04;98185.56;;;5.08;100.00
9746;BME280;4912;50.836;12.958;2023-02-03T03:15:38;98193.38;;;5.10;100.00
9746;BME280;4912;50.836;12.958;2023-02-03T03:18:13;98177.00;;;5.06;100.00
9746;BME280;4912;50.836;12.958;2023-02-03T03:20:50;98186.06;;;5.03;100.00
9746;BME280;4912;50.836;12.958;2023-02-03T03:23:26;98187.13;;;5.09;100.00
9746;BME280;4912;50.836;12.958;2023-02-03T03:26:03;98183.97;;;5.11;100.00
9746;BME280;4912;50.836;12.958;2023-02-03T03:28:43;98175.16;;;5.19;100.00
9746;BME280;4912;50.836;12.958;2023-02-03T03:31:16;98190.78;;;5.22;100.00
9746;BME280;4912;50.836;12.958;2023-02-03T03:33:47;98185.00;;;5.17;100.00
9746;BME280;4912;50.836;12.958;2023-02-03T03:36:25;98180.13;;;5.24;100.00
9746;BME280;4912;50.836;12.958;2023-02-03T03:39:02;98189.22;;;5.21;100.00
9746;BME280;4912;50.836;12.958;2023-02-03T03:41:43;98169.66;;;5.19;100.00
9746;BME280;4912;50.836;12.958;2023-02-03T03:44:21;98171.91;;;5.24;100.00
9746;BME280;4912;50.836;12.958;2023-02-03T03:47:01;98165.59;;;5.27;100.00
9746;BME280;4912;50.836;12.958;2023-02-03T03:49:37;98177.25;;;5.31;100.00
9746;BME280;4912;50.836;12.958;2023-02-03T03:52:17;98189.50;;;5.27;100.00
9746;BME280;4912;50.836;12.958;2023-02-03T03:54:50;98183.78;;;5.38;100.00
9746;BME280;4912;50.836;12.958;2023-02-03T03:57:25;98177.63;;;5.33;100.00
9746;BME280;4912;50.836;12.958;2023-02-03T03:59:59;98170.84;;;5.38;100.00
9746;BME280;4912;50.836;12.958;2023-02-03T04:02:39;98158.69;;;5.39;100.00
9746;BME280;4912;50.836;12.958;2023-02-03T04:05:12;98152.91;;;5.33;100.00
9746;BME280;4912;50.836;12.958;2023-02-03T04:07:46;98153.59;;;5.38;100.00
9746;BME280;4912;50.836;12.958;2023-02-03T04:10:25;98134.75;;;5.40;100.00
9746;BME280;4912;50.836;12.958;2023-02-03T04:13:00;98129.63;;;5.42;100.00
9746;BME280;4912;50.836;12.958;2023-02-03T04:15:31;98129.63;;;5.42;100.00
9746;BME280;4912;50.836;12.958;2023-02-03T04:18:02;98110.34;;;5.45;100.00
9746;BME280;4912;50.836;12.958;2023-02-03T04:20:33;98104.75;;;5.49;100.00
9746;BME280;4912;50.836;12.958;2023-02-03T04:23:07;98110.59;;;5.51;100.00
9746;BME280;4912;50.836;12.958;2023-02-03T04:25:37;98083.16;;;5.51;100.00
9746;BME280;4912;50.836;12.958;2023-02-03T04:28:07;98079.63;;;5.50;100.00
9746;BME280;4912;50.836;12.958;2023-02-03T04:30:38;98084.19;;;5.57;100.00
9746;BME280;4912;50.836;12.958;2023-02-03T04:33:11;98076.72;;;5.57;100.00
9746;BME280;4912;50.836;12.958;2023-02-03T04:35:41;98075.69;;;5.67;100.00
9746;BME280;4912;50.836;12.958;2023-02-03T04:38:14;98084.72;;;5.68;100.00
9746;BME280;4912;50.836;12.958;2023-02-03T04:40:47;98095.69;;;5.68;100.00
9746;BME280;4912;50.836;12.958;2023-02-03T04:43:18;98104.59;;;5.72;100.00
9746;BME280;4912;50.836;12.958;2023-02-03T04:45:48;98116.56;;;5.82;100.00
9746;BME280;4912;50.836;12.958;2023-02-03T04:48:19;98099.66;;;5.83;100.00
9746;BME280;4912;50.836;12.958;2023-02-03T04:50:49;98110.47;;;5.90;100.00
9746;BME280;4912;50.836;12.958;2023-02-03T04:53:24;98112.28;;;5.97;100.00
9746;BME280;4912;50.836;12.958;2023-02-03T04:55:55;98109.88;;;5.99;100.00
9746;BME280;4912;50.836;12.958;2023-02-03T04:58:25;98101.72;;;5.95;100.00
9746;BME280;4912;50.836;12.958;2023-02-03T05:00:56;98116.22;;;5.96;100.00
9746;BME280;4912;50.836;12.958;2023-02-03T05:03:26;98083.38;;;5.92;100.00
9746;BME280;4912;50.836;12.958;2023-02-03T05:05:57;98096.75;;;5.90;100.00
9746;BME280;4912;50.836;12.958;2023-02-03T05:08:31;98097.94;;;5.89;100.00
9746;BME280;4912;50.836;12.958;2023-02-03T05:11:02;98138.28;;;5.92;100.00
9746;BME280;4912;50.836;12.958;2023-02-03T05:13:32;98116.56;;;5.98;100.00
9746;BME280;4912;50.836;12.958;2023-02-03T05:16:03;98092.22;;;6.00;100.00
9746;BME280;4912;50.836;12.958;2023-02-03T05:18:35;98098.56;;;5.97;100.00
9746;BME280;4912;50.836;12.958;2023-02-03T05:21:05;98078.22;;;5.94;100.00
9746;BME280;4912;50.836;12.958;2023-02-03T05:23:38;98078.56;;;5.96;100.00
9746;BME280;4912;50.836;12.958;2023-02-03T05:26:09;98081.41;;;5.93;100.00
9746;BME280;4912;50.836;12.958;2023-02-03T05:28:39;98089.38;;;5.87;100.00
9746;BME280;4912;50.836;12.958;2023-02-03T05:31:10;98071.44;;;5.83;100.00
9746;BME280;4912;50.836;12.958;2023-02-03T05:33:40;98068.69;;;5.83;100.00
9746;BME280;4912;50.836;12.958;2023-02-03T05:36:10;98058.13;;;5.81;100.00
9746;BME280;4912;50.836;12.958;2023-02-03T05:38:43;98046.38;;;5.81;100.00
9746;BME280;4912;50.836;12.958;2023-02-03T05:41:14;98046.63;;;5.86;100.00
9746;BME280;4912;50.836;12.958;2023-02-03T05:43:56;98054.00;;;5.89;100.00
9746;BME280;4912;50.836;12.958;2023-02-03T05:46:28;98052.50;;;5.88;100.00
9746;BME280;4912;50.836;12.958;2023-02-03T05:48:59;98051.25;;;5.89;100.00
9746;BME280;4912;50.836;12.958;2023-02-03T05:51:30;98044.25;;;5.88;100.00
9746;BME280;4912;50.836;12.958;2023-02-03T05:54:03;98059.50;;;5.89;100.00
9746;BME280;4912;50.836;12.958;2023-02-03T05:56:34;98058.03;;;5.85;100.00
9746;BME280;4912;50.836;12.958;2023-02-03T05:59:04;98066.22;;;5.88;100.00
9746;BME280;4912;50.836;12.958;2023-02-03T06:01:35;98057.09;;;5.91;100.00
9746;BME280;4912;50.836;12.958;2023-02-03T06:04:06;98064.50;;;5.94;100.00
9746;BME280;4912;50.836;12.958;2023-02-03T06:06:36;98061.22;;;5.99;100.00
9746;BME280;4912;50.836;12.958;2023-02-03T06:09:09;98062.69;;;6.04;100.00
9746;BME280;4912;50.836;12.958;2023-02-03T06:11:40;98076.66;;;6.09;100.00
9746;BME280;4912;50.836;12.958;2023-02-03T06:14:10;98067.03;;;6.18;100.00
9746;BME280;4912;50.836;12.958;2023-02-03T06:16:40;98065.81;;;6.18;100.00
9746;BME280;4912;50.836;12.958;2023-02-03T06:19:11;98064.06;;;6.12;100.00
9746;BME280;4912;50.836;12.958;2023-02-03T06:21:42;98052.72;;;6.10;100.00
9746;BME280;4912;50.836;12.958;2023-02-03T06:24:15;98042.84;;;6.12;100.00
9746;BME280;4912;50.836;12.958;2023-02-03T06:26:46;98036.47;;;6.15;100.00
9746;BME280;4912;50.836;12.958;2023-02-03T06:29:16;98025.84;;;6.18;100.00
9746;BME280;4912;50.836;12.958;2023-02-03T06:31:47;98026.06;;;6.23;100.00
9746;BME280;4912;50.836;12.958;2023-02-03T06:34:17;98035.16;;;6.20;100.00
9746;BME280;4912;50.836;12.958;2023-02-03T06:36:48;98021.78;;;6.22;100.00
9746;BME280;4912;50.836;12.958;2023-02-03T06:39:21;98018.44;;;6.14;100.00
9746;BME280;4912;50.836;12.958;2023-02-03T06:41:51;98016.81;;;6.17;100.00
9746;BME280;4912;50.836;12.958;2023-02-03T06:44:22;98014.84;;;6.18;100.00
9746;BME280;4912;50.836;12.958;2023-02-03T06:46:53;98005.06;;;6.16;100.00
9746;BME280;4912;50.836;12.958;2023-02-03T06:49:24;98008.91;;;6.19;100.00
9746;BME280;4912;50.836;12.958;2023-02-03T06:51:55;97991.63;;;6.18;100.00
9746;BME280;4912;50.836;12.958;2023-02-03T06:54:27;97997.91;;;6.19;100.00
9746;BME280;4912;50.836;12.958;2023-02-03T06:56:58;97997.84;;;6.23;100.00
9746;BME280;4912;50.836;12.958;2023-02-03T06:59:28;97991.44;;;6.26;100.00
9746;BME280;4912;50.836;12.958;2023-02-03T07:01:59;97984.94;;;6.20;100.00
9746;BME280;4912;50.836;12.958;2023-02-03T07:04:29;97986.06;;;6.22;100.00
9746;BME280;4912;50.836;12.958;2023-02-03T07:06:59;98002.44;;;6.26;100.00
9746;BME280;4912;50.836;12.958;2023-02-03T07:09:32;97983.66;;;6.24;100.00
9746;BME280;4912;50.836;12.958;2023-02-03T07:12:03;97982.00;;;6.27;100.00
9746;BME280;4912;50.836;12.958;2023-02-03T07:14:34;97979.94;;;6.31;100.00
9746;BME280;4912;50.836;12.958;2023-02-03T07:17:05;97981.81;;;6.34;100.00
9746;BME280;4912;50.836;12.958;2023-02-03T07:19:35;97966.78;;;6.38;100.00
9746;BME280;4912;50.836;12.958;2023-02-03T07:22:06;97969.09;;;6.40;100.00
9746;BME280;4912;50.836;12.958;2023-02-03T07:24:39;97957.31;;;6.39;100.00
9746;BME280;4912;50.836;12.958;2023-02-03T07:27:09;97953.94;;;6.48;100.00
9746;BME280;4912;50.836;12.958;2023-02-03T07:29:39;97941.50;;;6.43;100.00
9746;BME280;4912;50.836;12.958;2023-02-03T07:32:10;97950.19;;;6.42;100.00
9746;BME280;4912;50.836;12.958;2023-02-03T07:34:40;97959.63;;;6.41;100.00
9746;BME280;4912;50.836;12.958;2023-02-03T07:37:10;97948.44;;;6.48;100.00
9746;BME280;4912;50.836;12.958;2023-02-03T07:39:43;97953.06;;;6.51;100.00
9746;BME280;4912;50.836;12.958;2023-02-03T07:42:14;97945.34;;;6.46;100.00
9746;BME280;4912;50.836;12.958;2023-02-03T07:44:48;97953.94;;;6.48;100.00
9746;BME280;4912;50.836;12.958;2023-02-03T07:47:19;97946.13;;;6.46;100.00
9746;BME280;4912;50.836;12.958;2023-02-03T07:49:49;97924.91;;;6.47;100.00
9746;BME280;4912;50.836;12.958;2023-02-03T07:52:19;97931.97;;;6.48;100.00
9746;BME280;4912;50.836;12.958;2023-02-03T07:54:52;97940.88;;;6.52;100.00
9746;BME280;4912;50.836;12.958;2023-02-03T07:57:23;97928.97;;;6.55;100.00
9746;BME280;4912;50.836;12.958;2023-02-03T07:59:53;97929.31;;;6.57;100.00
9746;BME280;4912;50.836;12.958;2023-02-03T08:02:24;97943.50;;;6.55;100.00
9746;BME280;4912;50.836;12.958;2023-02-03T08:04:54;97935.59;;;6.57;100.00
9746;BME280;4912;50.836;12.958;2023-02-03T08:07:25;97932.84;;;6.57;100.00
9746;BME280;4912;50.836;12.958;2023-02-03T08:09:58;97926.91;;;6.59;100.00
9746;BME280;4912;50.836;12.958;2023-02-03T08:12:28;97933.94;;;6.60;100.00
9746;BME280;4912;50.836;12.958;2023-02-03T08:14:59;97936.44;;;6.54;100.00
9746;BME280;4912;50.836;12.958;2023-02-03T08:17:30;97917.56;;;6.56;100.00
9746;BME280;4912;50.836;12.958;2023-02-03T08:20:00;97924.69;;;6.54;100.00
9746;BME280;4912;50.836;12.958;2023-02-03T08:22:30;97907.53;;;6.50;100.00
9746;BME280;4912;50.836;12.958;2023-02-03T08:25:04;97904.34;;;6.51;100.00
9746;BME280;4912;50.836;12.958;2023-02-03T08:27:35;97895.00;;;6.49;100.00
9746;BME280;4912;50.836;12.958;2023-02-03T08:30:09;97896.75;;;6.43;100.00
9746;BME280;4912;50.836;12.958;2023-02-03T08:32:42;97905.75;;;6.43;100.00
9746;BME280;4912;50.836;12.958;2023-02-03T08:35:12;97897.75;;;6.49;100.00
9746;BME280;4912;50.836;12.958;2023-02-03T08:37:43;97891.38;;;6.52;100.00
9746;BME280;4912;50.836;12.958;2023-02-03T08:40:16;97913.91;;;6.47;100.00
9746;BME280;4912;50.836;12.958;2023-02-03T08:42:47;97901.94;;;6.53;100.00
9746;BME280;4912;50.836;12.958;2023-02-03T08:45:17;97890.84;;;6.57;100.00
9746;BME280;4912;50.836;12.958;2023-02-03T08:47:48;97911.06;;;6.63;100.00
9746;BME280;4912;50.836;12.958;2023-02-03T08:50:18;97886.66;;;6.65;100.00
9746;BME280;4912;50.836;12.958;2023-02-03T08:52:49;97898.31;;;6.69;100.00
9746;BME280;4912;50.836;12.958;2023-02-03T08:55:22;97893.69;;;6.66;100.00
9746;BME280;4912;50.836;12.958;2023-02-03T08:57:52;97880.28;;;6.68;100.00
9746;BME280;4912;50.836;12.958;2023-02-03T09:00:23;97878.19;;;6.72;100.00
9746;BME280;4912;50.836;12.958;2023-02-03T09:02:54;97893.69;;;6.79;100.00
9746;BME280;4912;50.836;12.958;2023-02-03T09:05:24;97886.88;;;6.83;100.00
9746;BME280;4912;50.836;12.958;2023-02-03T09:07:55;97885.66;;;6.84;100.00
9746;BME280;4912;50.836;12.958;2023-02-03T09:10:28;97878.63;;;6.83;100.00
9746;BME280;4912;50.836;12.958;2023-02-03T09:12:58;97883.69;;;6.85;100.00
9746;BME280;4912;50.836;12.958;2023-02-03T09:15:28;97861.25;;;6.86;100.00
9746;BME280;4912;50.836;12.958;2023-02-03T09:17:59;97861.13;;;6.90;100.00
9746;BME280;4912;50.836;12.958;2023-02-03T09:20:29;97855.19;;;6.91;100.00
9746;BME280;4912;50.836;12.958;2023-02-03T09:23:00;97846.94;;;6.91;100.00
9746;BME280;4912;50.836;12.958;2023-02-03T09:25:33;97849.47;;;6.98;100.00
9746;BME280;4912;50.836;12.958;2023-02-03T09:28:03;97825.78;;;7.01;100.00
9746;BME280;4912;50.836;12.958;2023-02-03T09:30:34;97825.69;;;7.05;100.00
9746;BME280;4912;50.836;12.958;2023-02-03T09:33:04;97835.47;;;7.06;100.00
9746;BME280;4912;50.836;12.958;2023-02-03T09:35:34;97804.88;;;7.04;100.00
9746;BME280;4912;50.836;12.958;2023-02-03T09:38:05;97802.91;;;7.04;100.00
9746;BME280;4912;50.836;12.958;2023-02-03T09:40:38;97811.59;;;7.03;100.00
9746;BME280;4912;50.836;12.958;2023-02-03T09:43:15;97796.97;;;7.06;100.00
9746;BME280;4912;50.836;12.958;2023-02-03T09:46:02;97796.72;;;7.13;100.00
9746;BME280;4912;50.836;12.958;2023-02-03T09:48:37;97799.78;;;7.15;100.00
9746;BME280;4912;50.836;12.958;2023-02-03T09:51:17;97793.72;;;7.20;100.00
9746;BME280;4912;50.836;12.958;2023-02-03T09:53:51;97779.94;;;7.20;100.00
9746;BME280;4912;50.836;12.958;2023-02-03T09:56:31;97796.03;;;7.21;100.00
9746;BME280;4912;50.836;12.958;2023-02-03T09:59:02;97788.22;;;7.20;100.00
9746;BME280;4912;50.836;12.958;2023-02-03T10:01:39;97790.31;;;7.16;100.00
9746;BME280;4912;50.836;12.958;2023-02-03T10:04:24;97796.94;;;7.18;100.00
9746;BME280;4912;50.836;12.958;2023-02-03T10:07:09;97778.09;;;7.17;100.00
9746;BME280;4912;50.836;12.958;2023-02-03T10:09:50;97782.69;;;7.20;100.00
9746;BME280;4912;50.836;12.958;2023-02-03T10:12:43;97766.84;;;7.24;100.00
9746;BME280;4912;50.836;12.958;2023-02-03T10:18:22;97774.41;;;7.32;100.00
9746;BME280;4912;50.836;12.958;2023-02-03T10:20:57;97766.22;;;7.42;100.00
9746;BME280;4912;50.836;12.958;2023-02-03T10:23:33;97773.16;;;7.46;100.00
9746;BME280;4912;50.836;12.958;2023-02-03T10:26:07;97752.34;;;7.45;100.00
9746;BME280;4912;50.836;12.958;2023-02-03T10:28:47;97760.59;;;7.45;100.00
9746;BME280;4912;50.836;12.958;2023-02-03T10:31:25;97732.91;;;7.49;100.00
9746;BME280;4912;50.836;12.958;2023-02-03T10:33:59;97751.13;;;7.46;100.00
9746;BME280;4912;50.836;12.958;2023-02-03T10:36:38;97755.84;;;7.46;100.00
9746;BME280;4912;50.836;12.958;2023-02-03T10:39:26;97733.06;;;7.45;100.00
9746;BME280;4912;50.836;12.958;2023-02-03T10:42:03;97746.06;;;7.45;100.00
9746;BME280;4912;50.836;12.958;2023-02-03T10:44:39;97739.41;;;7.33;100.00
9746;BME280;4912;50.836;12.958;2023-02-03T10:47:20;97721.59;;;7.25;100.00
9746;BME280;4912;50.836;12.958;2023-02-03T10:49:56;97711.31;;;7.16;100.00
9746;BME280;4912;50.836;12.958;2023-02-03T10:52:29;97698.13;;;7.11;100.00
9746;BME280;4912;50.836;12.958;2023-02-03T10:55:05;97703.69;;;6.98;100.00
9746;BME280;4912;50.836;12.958;2023-02-03T10:57:39;97682.13;;;6.97;100.00
9746;BME280;4912;50.836;12.958;2023-02-03T11:00:23;97702.38;;;6.90;100.00
9746;BME280;4912;50.836;12.958;2023-02-03T11:03:02;97688.44;;;6.85;100.00
9746;BME280;4912;50.836;12.958;2023-02-03T11:05:35;97678.78;;;6.80;100.00
9746;BME280;4912;50.836;12.958;2023-02-03T11:08:13;97680.75;;;6.80;100.00
9746;BME280;4912;50.836;12.958;2023-02-03T11:10:44;97685.69;;;6.85;100.00
9746;BME280;4912;50.836;12.958;2023-02-03T11:13:19;97702.13;;;6.97;100.00
9746;BME280;4912;50.836;12.958;2023-02-03T11:15:59;97705.22;;;6.99;100.00
9746;BME280;4912;50.836;12.958;2023-02-03T11:18:37;97701.31;;;7.10;100.00
9746;BME280;4912;50.836;12.958;2023-02-03T11:21:11;97697.47;;;7.07;100.00
9746;BME280;4912;50.836;12.958;2023-02-03T11:23:54;97679.16;;;7.13;100.00
9746;BME280;4912;50.836;12.958;2023-02-03T11:26:29;97692.09;;;7.04;100.00
9746;BME280;4912;50.836;12.958;2023-02-03T11:29:03;97678.28;;;6.94;100.00
9746;BME280;4912;50.836;12.958;2023-02-03T11:31:37;97674.78;;;6.94;100.00
9746;BME280;4912;50.836;12.958;2023-02-03T11:34:15;97678.94;;;6.98;100.00
9746;BME280;4912;50.836;12.958;2023-02-03T11:36:46;97685.44;;;6.92;100.00
9746;BME280;4912;50.836;12.958;2023-02-03T11:39:24;97674.38;;;6.83;100.00
9746;BME280;4912;50.836;12.958;2023-02-03T11:42:01;97667.72;;;6.71;100.00
9746;BME280;4912;50.836;12.958;2023-02-03T11:44:32;97667.72;;;6.71;100.00
9746;BME280;4912;50.836;12.958;2023-02-03T11:47:08;97670.47;;;6.71;100.00
9746;BME280;4912;50.836;12.958;2023-02-03T11:49:57;97670.47;;;6.71;100.00
9746;BME280;4912;50.836;12.958;2023-02-03T11:52:49;97648.34;;;6.75;100.00
9746;BME280;4912;50.836;12.958;2023-02-03T11:55:45;97653.75;;;6.66;100.00
9746;BME280;4912;50.836;12.958;2023-02-03T12:01:52;97659.91;;;6.70;100.00
9746;BME280;4912;50.836;12.958;2023-02-03T12:04:55;97651.09;;;6.75;100.00
9746;BME280;4912;50.836;12.958;2023-02-03T12:07:42;97645.19;;;6.85;100.00
9746;BME280;4912;50.836;12.958;2023-02-03T12:10:35;97638.16;;;6.84;100.00
9746;BME280;4912;50.836;12.958;2023-02-03T12:13:39;97639.91;;;6.91;100.00
9746;BME280;4912;50.836;12.958;2023-02-03T12:16:28;97625.31;;;7.03;100.00
9746;BME280;4912;50.836;12.958;2023-02-03T12:19:15;97638.47;;;7.08;100.00
9746;BME280;4912;50.836;12.958;2023-02-03T12:21:56;97628.44;;;7.14;100.00
9746;BME280;4912;50.836;12.958;2023-02-03T12:24:40;97632.03;;;7.24;100.00
9746;BME280;4912;50.836;12.958;2023-02-03T12:27:23;97634.63;;;7.27;100.00
9746;BME280;4912;50.836;12.958;2023-02-03T12:30:05;97646.16;;;7.35;100.00
9746;BME280;4912;50.836;12.958;2023-02-03T12:32:44;97638.38;;;7.43;100.00
9746;BME280;4912;50.836;12.958;2023-02-03T12:35:20;97641.78;;;7.47;100.00
9746;BME280;4912;50.836;12.958;2023-02-03T12:38:04;97630.31;;;7.48;100.00
9746;BME280;4912;50.836;12.958;2023-02-03T12:40:41;97644.72;;;7.52;100.00
9746;BME280;4912;50.836;12.958;2023-02-03T12:43:20;97627.09;;;7.50;100.00
9746;BME280;4912;50.836;12.958;2023-02-03T12:45:55;97622.53;;;7.56;100.00
9746;BME280;4912;50.836;12.958;2023-02-03T12:48:39;97610.00;;;7.55;100.00
9746;BME280;4912;50.836;12.958;2023-02-03T12:51:25;97592.72;;;7.54;100.00
9746;BME280;4912;50.836;12.958;2023-02-03T12:54:04;97606.19;;;7.61;100.00
9746;BME280;4912;50.836;12.958;2023-02-03T12:56:42;97588.28;;;7.57;100.00
9746;BME280;4912;50.836;12.958;2023-02-03T12:59:19;97581.69;;;7.54;100.00
9746;BME280;4912;50.836;12.958;2023-02-03T13:01:56;97584.19;;;7.61;100.00
9746;BME280;4912;50.836;12.958;2023-02-03T13:04:34;97589.41;;;7.68;100.00
9746;BME280;4912;50.836;12.958;2023-02-03T13:07:13;97589.25;;;7.72;100.00
9746;BME280;4912;50.836;12.958;2023-02-03T13:09:56;97567.53;;;7.65;100.00
9746;BME280;4912;50.836;12.958;2023-02-03T13:12:31;97578.06;;;7.66;100.00
9746;BME280;4912;50.836;12.958;2023-02-03T13:15:14;97584.06;;;7.74;100.00
9746;BME280;4912;50.836;12.958;2023-02-03T13:17:54;97591.72;;;7.79;100.00
9746;BME280;4912;50.836;12.958;2023-02-03T13:20:27;97590.97;;;7.78;100.00
9746;BME280;4912;50.836;12.958;2023-02-03T13:23:03;97604.88;;;7.75;100.00
9746;BME280;4912;50.836;12.958;2023-02-03T13:25:47;97603.22;;;7.77;100.00
9746;BME280;4912;50.836;12.958;2023-02-03T13:28:36;97600.75;;;7.79;100.00
9746;BME280;4912;50.836;12.958;2023-02-03T13:31:25;97610.13;;;7.82;100.00
9746;BME280;4912;50.836;12.958;2023-02-03T13:37:33;97636.00;;;7.94;100.00
9746;BME280;4912;50.836;12.958;2023-02-03T13:40:42;97621.31;;;7.97;100.00
9746;BME280;4912;50.836;12.958;2023-02-03T13:43:25;97618.72;;;7.93;100.00
9746;BME280;4912;50.836;12.958;2023-02-03T13:46:06;97618.13;;;7.98;100.00
9746;BME280;4912;50.836;12.958;2023-02-03T13:48:43;97625.00;;;8.03;100.00
9746;BME280;4912;50.836;12.958;2023-02-03T13:51:17;97583.25;;;8.04;100.00
9746;BME280;4912;50.836;12.958;2023-02-03T13:53:51;97616.00;;;8.11;100.00
9746;BME280;4912;50.836;12.958;2023-02-03T13:56:31;97601.16;;;8.09;100.00
9746;BME280;4912;50.836;12.958;2023-02-03T13:59:05;97610.34;;;8.15;100.00
9746;BME280;4912;50.836;12.958;2023-02-03T14:01:44;97607.59;;;8.15;100.00
9746;BME280;4912;50.836;12.958;2023-02-03T14:07:30;97600.25;;;8.12;100.00